Observations for LIVERPOOL AIRPORT, United Kingdom (EGGP)

EGGP 141050Z 02016KT 9999 -RA FEW030 07/03 Q1000
EGGP 141020Z 01016KT 9999 FEW040 07/03 Q1000
EGGP 140950Z 02014KT 9999 FEW040 07/03 Q1000
EGGP 140920Z 01016KT 9999 FEW034 06/03 Q1000
EGGP 140850Z 01013KT 9999 FEW030 06/03 Q0999
EGGP 140820Z 02014KT 9999 FEW030 07/04 Q0999
EGGP 140750Z 02013KT 9999 FEW018 06/03 Q0998
EGGP 140720Z 02012KT 9999 FEW018 06/03 Q0998
EGGP 140650Z 02012KT CAVOK 06/04 Q0997  
EGGP 140620Z 02010KT CAVOK 06/04 Q0997  
EGGP 140550Z 01010KT CAVOK 06/04 Q0996  
EGGP 140520Z 01009KT CAVOK 06/04 Q0996  
EGGP 140450Z 03013KT CAVOK 05/04 Q0995  
EGGP 140420Z 04013KT CAVOK 05/04 Q0995  
EGGP 140350Z 04014KT CAVOK 05/04 Q0994  
EGGP 140320Z 03015KT CAVOK 05/04 Q0994  
EGGP 140250Z 04017KT CAVOK 05/04 Q0993  
EGGP 140220Z 04016KT CAVOK 05/04 Q0993  
EGGP 140150Z 05016KT CAVOK 05/04 Q0993  
EGGP 140120Z 04017KT CAVOK 05/03 Q0993  
EGGP 140050Z 05013KT CAVOK 05/03 Q0992  
EGGP 140020Z 04014KT CAVOK 04/04 Q0992  
EGGP 132350Z 04015KT CAVOK 04/03 Q0992  
EGGP 132320Z 04013KT CAVOK 05/03 Q0992  
EGGP 132250Z 06016KT CAVOK 05/04 Q0991  
EGGP 132220Z 07016KT CAVOK 05/04 Q0991  
EGGP 132150Z 07017KT CAVOK 05/04 Q0991  
EGGP 132120Z 08013KT CAVOK 05/04 Q0991  
EGGP 132050Z 07013KT CAVOK 04/03 Q0991  
EGGP 132020Z 07013KT CAVOK 05/04 Q0991  
EGGP 131950Z 06013KT CAVOK 04/03 Q0991  
EGGP 131920Z 10010KT CAVOK 05/03 Q0991  
EGGP 131850Z 10012KT CAVOK 05/03 Q0992  
EGGP 131820Z 10012KT 9999 NSC 05/03 Q0992   
EGGP 131750Z 10010KT 9999 NSC 06/03 Q0992   
EGGP 131720Z 11009KT 9999 FEW026 05/03 Q0992
EGGP 131650Z 11009KT 090V150 9999 FEW026 06/04 Q0992
EGGP 131550Z 12008KT 9999 FEW025 07/04 Q0993
EGGP 131520Z 13007KT 9999 FEW025 08/05 Q0993
EGGP 131450Z 17009KT 9999 FEW022 08/04 Q0994
EGGP 131420Z 17008KT 9999 FEW022 08/05 Q0994
EGGP 131350Z 17009KT 9999 FEW018 08/05 Q0995
EGGP 131320Z 16007KT 9999 FEW018 08/06 Q0995
EGGP 131250Z 15007KT 9999 FEW018 08/06 Q0996
EGGP 131220Z 15006KT 9999 FEW018 07/06 Q0996
EGGP 131150Z 15005KT 9999 FEW016 07/06 Q0997
EGGP 131120Z 14004KT 100V160 9999 FEW014 SCT028 07/06 Q0997 
EGGP 131050Z 15006KT 9999 FEW014 SCT028 07/06 Q0998 
EGGP 131020Z 16004KT 130V210 9999 FEW013 SCT025 07/06 Q0998 
EGGP 130950Z 15005KT 120V180 9999 VCSH FEW013 BKN022 BKN030 06/05 Q0999